sensor_id;sensor_type;location;lat;lon;timestamp;P1;durP1;ratioP1;P2;durP2;ratioP2
18776;SDS011;9517;51.174;4.160;2022-09-17T00:00:25;11.00;;;1.80;;
18776;SDS011;9517;51.174;4.160;2022-09-17T00:02:52;17.23;;;6.20;;
18776;SDS011;9517;51.174;4.160;2022-09-17T00:05:24;17.17;;;5.27;;
18776;SDS011;9517;51.174;4.160;2022-09-17T00:07:52;12.60;;;1.57;;
18776;SDS011;9517;51.174;4.160;2022-09-17T00:10:19;16.30;;;2.03;;
18776;SDS011;9517;51.174;4.160;2022-09-17T00:12:49;10.93;;;1.30;;
18776;SDS011;9517;51.174;4.160;2022-09-17T00:15:16;12.60;;;1.20;;
18776;SDS011;9517;51.174;4.160;2022-09-17T00:17:47;16.20;;;1.40;;
18776;SDS011;9517;51.174;4.160;2022-09-17T00:20:21;11.80;;;1.80;;
18776;SDS011;9517;51.174;4.160;2022-09-17T00:22:52;13.43;;;1.73;;
18776;SDS011;9517;51.174;4.160;2022-09-17T00:25:21;13.70;;;1.30;;
18776;SDS011;9517;51.174;4.160;2022-09-17T00:27:50;12.60;;;1.73;;
18776;SDS011;9517;51.174;4.160;2022-09-17T00:30:19;10.97;;;1.60;;
18776;SDS011;9517;51.174;4.160;2022-09-17T00:32:46;16.10;;;1.97;;
18776;SDS011;9517;51.174;4.160;2022-09-17T00:35:14;10.70;;;2.00;;
18776;SDS011;9517;51.174;4.160;2022-09-17T00:37:42;17.93;;;2.87;;
18776;SDS011;9517;51.174;4.160;2022-09-17T00:40:18;14.37;;;1.63;;
18776;SDS011;9517;51.174;4.160;2022-09-17T00:42:56;11.83;;;1.50;;
18776;SDS011;9517;51.174;4.160;2022-09-17T00:45:25;15.60;;;1.77;;
18776;SDS011;9517;51.174;4.160;2022-09-17T00:47:56;13.97;;;1.47;;
18776;SDS011;9517;51.174;4.160;2022-09-17T00:50:26;19.20;;;2.40;;
18776;SDS011;9517;51.174;4.160;2022-09-17T00:52:56;14.40;;;1.83;;
18776;SDS011;9517;51.174;4.160;2022-09-17T00:55:28;16.20;;;1.80;;
18776;SDS011;9517;51.174;4.160;2022-09-17T00:58:00;11.03;;;1.13;;
18776;SDS011;9517;51.174;4.160;2022-09-17T01:00:28;13.57;;;1.90;;
18776;SDS011;9517;51.174;4.160;2022-09-17T01:02:56;13.17;;;1.50;;
18776;SDS011;9517;51.174;4.160;2022-09-17T01:05:26;15.27;;;2.07;;
18776;SDS011;9517;51.174;4.160;2022-09-17T01:08:01;20.10;;;1.93;;
18776;SDS011;9517;51.174;4.160;2022-09-17T01:13:55;11.97;;;1.90;;
18776;SDS011;9517;51.174;4.160;2022-09-17T01:16:32;15.73;;;1.80;;
18776;SDS011;9517;51.174;4.160;2022-09-17T01:19:11;16.87;;;1.80;;
18776;SDS011;9517;51.174;4.160;2022-09-17T01:21:58;19.83;;;2.10;;
18776;SDS011;9517;51.174;4.160;2022-09-17T01:30:51;22.40;;;2.70;;
18776;SDS011;9517;51.174;4.160;2022-09-17T01:33:32;21.63;;;2.40;;
18776;SDS011;9517;51.174;4.160;2022-09-17T01:36:11;22.00;;;2.27;;
18776;SDS011;9517;51.174;4.160;2022-09-17T01:38:49;19.77;;;3.20;;
18776;SDS011;9517;51.174;4.160;2022-09-17T01:41:25;22.67;;;2.77;;
18776;SDS011;9517;51.174;4.160;2022-09-17T01:43:58;21.90;;;2.77;;
18776;SDS011;9517;51.174;4.160;2022-09-17T01:46:34;19.63;;;2.23;;
18776;SDS011;9517;51.174;4.160;2022-09-17T01:49:05;16.23;;;2.70;;
18776;SDS011;9517;51.174;4.160;2022-09-17T01:51:37;20.37;;;2.50;;
18776;SDS011;9517;51.174;4.160;2022-09-17T01:54:09;21.00;;;2.87;;
18776;SDS011;9517;51.174;4.160;2022-09-17T01:56:43;27.27;;;2.67;;
18776;SDS011;9517;51.174;4.160;2022-09-17T01:59:17;23.87;;;2.77;;
18776;SDS011;9517;51.174;4.160;2022-09-17T02:01:49;21.07;;;2.43;;
18776;SDS011;9517;51.174;4.160;2022-09-17T02:04:19;20.10;;;2.20;;
18776;SDS011;9517;51.174;4.160;2022-09-17T02:06:55;21.63;;;2.93;;
18776;SDS011;9517;51.174;4.160;2022-09-17T02:09:27;26.13;;;3.20;;
18776;SDS011;9517;51.174;4.160;2022-09-17T02:11:59;22.87;;;2.80;;
18776;SDS011;9517;51.174;4.160;2022-09-17T02:14:33;24.07;;;2.80;;
18776;SDS011;9517;51.174;4.160;2022-09-17T02:17:06;23.20;;;2.50;;
18776;SDS011;9517;51.174;4.160;2022-09-17T02:19:38;21.83;;;2.70;;
18776;SDS011;9517;51.174;4.160;2022-09-17T02:22:09;23.20;;;2.80;;
18776;SDS011;9517;51.174;4.160;2022-09-17T02:24:48;24.73;;;2.60;;
18776;SDS011;9517;51.174;4.160;2022-09-17T02:27:26;21.97;;;2.70;;
18776;SDS011;9517;51.174;4.160;2022-09-17T02:30:02;27.40;;;2.83;;
18776;SDS011;9517;51.174;4.160;2022-09-17T02:32:32;17.53;;;2.17;;
18776;SDS011;9517;51.174;4.160;2022-09-17T02:34:59;19.73;;;3.00;;
18776;SDS011;9517;51.174;4.160;2022-09-17T02:37:26;27.00;;;2.83;;
18776;SDS011;9517;51.174;4.160;2022-09-17T02:39:54;24.90;;;2.80;;
18776;SDS011;9517;51.174;4.160;2022-09-17T02:42:26;24.63;;;2.50;;
18776;SDS011;9517;51.174;4.160;2022-09-17T02:45:00;16.50;;;2.30;;
18776;SDS011;9517;51.174;4.160;2022-09-17T02:47:45;26.67;;;2.93;;
18776;SDS011;9517;51.174;4.160;2022-09-17T02:53:38;22.60;;;2.30;;
18776;SDS011;9517;51.174;4.160;2022-09-17T02:56:12;24.17;;;2.63;;
18776;SDS011;9517;51.174;4.160;2022-09-17T02:58:48;18.13;;;2.43;;
18776;SDS011;9517;51.174;4.160;2022-09-17T03:01:22;16.27;;;2.90;;
18776;SDS011;9517;51.174;4.160;2022-09-17T03:03:55;21.37;;;2.37;;
18776;SDS011;9517;51.174;4.160;2022-09-17T03:06:39;23.30;;;2.50;;
18776;SDS011;9517;51.174;4.160;2022-09-17T03:09:06;20.17;;;2.60;;
18776;SDS011;9517;51.174;4.160;2022-09-17T03:11:33;23.20;;;2.87;;
18776;SDS011;9517;51.174;4.160;2022-09-17T03:14:00;23.50;;;2.90;;
18776;SDS011;9517;51.174;4.160;2022-09-17T03:16:28;19.87;;;2.50;;
18776;SDS011;9517;51.174;4.160;2022-09-17T03:18:56;30.83;;;3.00;;
18776;SDS011;9517;51.174;4.160;2022-09-17T03:21:23;27.83;;;3.80;;
18776;SDS011;9517;51.174;4.160;2022-09-17T03:23:50;22.07;;;2.73;;
18776;SDS011;9517;51.174;4.160;2022-09-17T03:26:18;30.13;;;3.27;;
18776;SDS011;9517;51.174;4.160;2022-09-17T03:28:47;26.93;;;3.33;;
18776;SDS011;9517;51.174;4.160;2022-09-17T03:31:14;27.63;;;3.70;;
18776;SDS011;9517;51.174;4.160;2022-09-17T03:33:41;20.00;;;3.03;;
18776;SDS011;9517;51.174;4.160;2022-09-17T03:36:09;19.03;;;3.20;;
18776;SDS011;9517;51.174;4.160;2022-09-17T03:38:36;34.50;;;3.63;;
18776;SDS011;9517;51.174;4.160;2022-09-17T03:41:04;30.30;;;3.87;;
18776;SDS011;9517;51.174;4.160;2022-09-17T03:43:32;25.30;;;3.03;;
18776;SDS011;9517;51.174;4.160;2022-09-17T03:45:59;21.60;;;3.07;;
18776;SDS011;9517;51.174;4.160;2022-09-17T03:48:26;23.93;;;2.90;;
18776;SDS011;9517;51.174;4.160;2022-09-17T03:50:54;19.53;;;2.63;;
18776;SDS011;9517;51.174;4.160;2022-09-17T03:53:35;20.53;;;2.67;;
18776;SDS011;9517;51.174;4.160;2022-09-17T03:56:03;22.97;;;3.00;;
18776;SDS011;9517;51.174;4.160;2022-09-17T03:58:31;19.77;;;2.60;;
18776;SDS011;9517;51.174;4.160;2022-09-17T04:00:58;21.53;;;3.00;;
18776;SDS011;9517;51.174;4.160;2022-09-17T04:03:27;27.90;;;3.43;;
18776;SDS011;9517;51.174;4.160;2022-09-17T04:05:55;23.57;;;3.00;;
18776;SDS011;9517;51.174;4.160;2022-09-17T04:08:24;23.13;;;2.97;;
18776;SDS011;9517;51.174;4.160;2022-09-17T04:10:53;21.40;;;3.13;;
18776;SDS011;9517;51.174;4.160;2022-09-17T04:13:25;20.63;;;2.93;;
18776;SDS011;9517;51.174;4.160;2022-09-17T04:15:54;20.37;;;3.20;;
18776;SDS011;9517;51.174;4.160;2022-09-17T04:18:22;28.57;;;3.10;;
18776;SDS011;9517;51.174;4.160;2022-09-17T04:20:54;24.63;;;3.40;;
18776;SDS011;9517;51.174;4.160;2022-09-17T04:23:27;23.33;;;3.53;;
18776;SDS011;9517;51.174;4.160;2022-09-17T04:25:54;20.33;;;2.83;;
18776;SDS011;9517;51.174;4.160;2022-09-17T04:28:21;21.13;;;3.17;;
18776;SDS011;9517;51.174;4.160;2022-09-17T04:30:48;29.03;;;3.50;;
18776;SDS011;9517;51.174;4.160;2022-09-17T04:33:15;26.40;;;3.00;;
18776;SDS011;9517;51.174;4.160;2022-09-17T04:35:42;23.43;;;3.60;;
18776;SDS011;9517;51.174;4.160;2022-09-17T04:38:10;24.53;;;2.77;;
18776;SDS011;9517;51.174;4.160;2022-09-17T04:40:43;23.87;;;3.20;;
18776;SDS011;9517;51.174;4.160;2022-09-17T04:43:11;21.93;;;3.63;;
18776;SDS011;9517;51.174;4.160;2022-09-17T04:45:39;23.10;;;3.47;;
18776;SDS011;9517;51.174;4.160;2022-09-17T04:48:06;19.43;;;3.33;;
18776;SDS011;9517;51.174;4.160;2022-09-17T04:50:33;19.50;;;3.30;;
18776;SDS011;9517;51.174;4.160;2022-09-17T04:53:00;21.30;;;3.30;;
18776;SDS011;9517;51.174;4.160;2022-09-17T04:55:27;26.37;;;3.50;;
18776;SDS011;9517;51.174;4.160;2022-09-17T04:57:56;17.50;;;3.17;;
18776;SDS011;9517;51.174;4.160;2022-09-17T05:00:24;21.17;;;3.40;;
18776;SDS011;9517;51.174;4.160;2022-09-17T05:02:53;19.70;;;3.07;;
18776;SDS011;9517;51.174;4.160;2022-09-17T05:05:25;15.93;;;2.60;;
18776;SDS011;9517;51.174;4.160;2022-09-17T05:07:52;18.00;;;3.03;;
18776;SDS011;9517;51.174;4.160;2022-09-17T05:10:26;14.63;;;2.17;;
18776;SDS011;9517;51.174;4.160;2022-09-17T05:12:54;16.73;;;2.43;;
18776;SDS011;9517;51.174;4.160;2022-09-17T05:15:23;16.63;;;2.23;;
18776;SDS011;9517;51.174;4.160;2022-09-17T05:17:51;18.20;;;2.20;;
18776;SDS011;9517;51.174;4.160;2022-09-17T05:20:19;15.50;;;2.00;;
18776;SDS011;9517;51.174;4.160;2022-09-17T05:22:49;18.37;;;2.10;;
18776;SDS011;9517;51.174;4.160;2022-09-17T05:25:18;18.63;;;2.00;;
18776;SDS011;9517;51.174;4.160;2022-09-17T05:27:50;15.70;;;2.13;;
18776;SDS011;9517;51.174;4.160;2022-09-17T05:30:20;12.53;;;1.80;;
18776;SDS011;9517;51.174;4.160;2022-09-17T05:32:58;20.40;;;2.00;;
18776;SDS011;9517;51.174;4.160;2022-09-17T05:35:27;18.20;;;3.30;;
18776;SDS011;9517;51.174;4.160;2022-09-17T05:37:56;14.27;;;2.40;;
18776;SDS011;9517;51.174;4.160;2022-09-17T05:40:26;15.43;;;2.10;;
18776;SDS011;9517;51.174;4.160;2022-09-17T05:42:56;15.40;;;2.33;;
18776;SDS011;9517;51.174;4.160;2022-09-17T05:45:24;17.53;;;1.87;;
18776;SDS011;9517;51.174;4.160;2022-09-17T05:47:53;25.37;;;2.93;;
18776;SDS011;9517;51.174;4.160;2022-09-17T05:50:22;16.13;;;1.33;;
18776;SDS011;9517;51.174;4.160;2022-09-17T05:52:51;15.03;;;1.53;;
18776;SDS011;9517;51.174;4.160;2022-09-17T05:55:19;13.77;;;1.47;;
18776;SDS011;9517;51.174;4.160;2022-09-17T05:57:48;14.90;;;1.63;;
18776;SDS011;9517;51.174;4.160;2022-09-17T06:00:15;16.03;;;2.03;;
18776;SDS011;9517;51.174;4.160;2022-09-17T06:02:42;12.37;;;1.80;;
18776;SDS011;9517;51.174;4.160;2022-09-17T06:05:10;13.00;;;1.63;;
18776;SDS011;9517;51.174;4.160;2022-09-17T06:07:40;13.83;;;1.77;;
18776;SDS011;9517;51.174;4.160;2022-09-17T06:10:10;15.57;;;1.87;;
18776;SDS011;9517;51.174;4.160;2022-09-17T06:12:37;12.03;;;1.77;;
18776;SDS011;9517;51.174;4.160;2022-09-17T06:15:04;14.50;;;1.40;;
18776;SDS011;9517;51.174;4.160;2022-09-17T06:17:32;12.77;;;1.90;;
18776;SDS011;9517;51.174;4.160;2022-09-17T06:20:00;14.47;;;2.00;;
18776;SDS011;9517;51.174;4.160;2022-09-17T06:22:28;20.40;;;2.10;;
18776;SDS011;9517;51.174;4.160;2022-09-17T06:24:58;13.80;;;2.13;;
18776;SDS011;9517;51.174;4.160;2022-09-17T06:27:29;16.93;;;1.73;;
18776;SDS011;9517;51.174;4.160;2022-09-17T06:29:57;12.43;;;1.60;;
18776;SDS011;9517;51.174;4.160;2022-09-17T06:32:24;16.20;;;1.73;;
18776;SDS011;9517;51.174;4.160;2022-09-17T06:34:51;16.40;;;1.80;;
18776;SDS011;9517;51.174;4.160;2022-09-17T06:37:26;15.77;;;2.43;;
18776;SDS011;9517;51.174;4.160;2022-09-17T06:39:54;19.30;;;1.70;;
18776;SDS011;9517;51.174;4.160;2022-09-17T06:42:22;17.70;;;1.80;;
18776;SDS011;9517;51.174;4.160;2022-09-17T06:44:50;16.73;;;2.13;;
18776;SDS011;9517;51.174;4.160;2022-09-17T06:47:22;15.70;;;1.97;;
18776;SDS011;9517;51.174;4.160;2022-09-17T06:49:52;13.47;;;1.60;;
18776;SDS011;9517;51.174;4.160;2022-09-17T06:52:24;17.53;;;2.07;;
18776;SDS011;9517;51.174;4.160;2022-09-17T06:54:52;19.97;;;2.53;;
18776;SDS011;9517;51.174;4.160;2022-09-17T06:57:19;13.53;;;2.23;;
18776;SDS011;9517;51.174;4.160;2022-09-17T06:59:49;15.10;;;1.90;;
18776;SDS011;9517;51.174;4.160;2022-09-17T07:02:16;15.77;;;1.90;;
18776;SDS011;9517;51.174;4.160;2022-09-17T07:04:45;15.00;;;2.17;;
18776;SDS011;9517;51.174;4.160;2022-09-17T07:07:13;16.77;;;2.50;;
18776;SDS011;9517;51.174;4.160;2022-09-17T07:09:40;11.80;;;1.70;;
18776;SDS011;9517;51.174;4.160;2022-09-17T07:12:07;17.77;;;2.47;;
18776;SDS011;9517;51.174;4.160;2022-09-17T07:14:35;17.03;;;2.03;;
18776;SDS011;9517;51.174;4.160;2022-09-17T07:17:03;17.80;;;2.23;;
18776;SDS011;9517;51.174;4.160;2022-09-17T07:19:30;14.80;;;2.10;;
18776;SDS011;9517;51.174;4.160;2022-09-17T07:21:58;14.37;;;2.47;;
18776;SDS011;9517;51.174;4.160;2022-09-17T07:24:25;23.53;;;3.90;;
18776;SDS011;9517;51.174;4.160;2022-09-17T07:26:52;17.27;;;2.60;;
18776;SDS011;9517;51.174;4.160;2022-09-17T07:29:19;16.87;;;2.33;;
18776;SDS011;9517;51.174;4.160;2022-09-17T07:31:47;19.90;;;2.47;;
18776;SDS011;9517;51.174;4.160;2022-09-17T07:34:15;14.50;;;1.93;;
18776;SDS011;9517;51.174;4.160;2022-09-17T07:36:42;14.57;;;2.57;;
18776;SDS011;9517;51.174;4.160;2022-09-17T07:39:09;15.87;;;2.43;;
18776;SDS011;9517;51.174;4.160;2022-09-17T07:41:37;22.33;;;2.33;;
18776;SDS011;9517;51.174;4.160;2022-09-17T07:44:07;16.27;;;2.53;;
18776;SDS011;9517;51.174;4.160;2022-09-17T07:46:35;20.07;;;2.93;;
18776;SDS011;9517;51.174;4.160;2022-09-17T07:49:02;20.87;;;2.77;;
18776;SDS011;9517;51.174;4.160;2022-09-17T07:51:30;14.47;;;1.90;;
18776;SDS011;9517;51.174;4.160;2022-09-17T07:53:57;17.07;;;2.27;;
18776;SDS011;9517;51.174;4.160;2022-09-17T07:56:26;18.13;;;1.77;;
18776;SDS011;9517;51.174;4.160;2022-09-17T07:58:53;12.83;;;2.03;;
18776;SDS011;9517;51.174;4.160;2022-09-17T08:01:21;10.90;;;1.40;;
18776;SDS011;9517;51.174;4.160;2022-09-17T08:03:51;15.57;;;2.20;;
18776;SDS011;9517;51.174;4.160;2022-09-17T08:06:20;15.07;;;1.40;;
18776;SDS011;9517;51.174;4.160;2022-09-17T08:08:54;11.07;;;1.40;;
18776;SDS011;9517;51.174;4.160;2022-09-17T08:11:22;10.80;;;1.10;;
18776;SDS011;9517;51.174;4.160;2022-09-17T08:13:51;7.43;;;1.13;;
18776;SDS011;9517;51.174;4.160;2022-09-17T08:16:21;8.83;;;1.40;;
18776;SDS011;9517;51.174;4.160;2022-09-17T08:18:53;10.80;;;1.30;;
18776;SDS011;9517;51.174;4.160;2022-09-17T08:21:23;12.53;;;1.63;;
18776;SDS011;9517;51.174;4.160;2022-09-17T08:23:51;8.87;;;1.30;;
18776;SDS011;9517;51.174;4.160;2022-09-17T08:26:20;6.17;;;1.13;;
18776;SDS011;9517;51.174;4.160;2022-09-17T08:28:53;7.97;;;1.77;;
18776;SDS011;9517;51.174;4.160;2022-09-17T08:31:21;16.13;;;1.50;;
18776;SDS011;9517;51.174;4.160;2022-09-17T08:33:52;7.07;;;0.80;;
18776;SDS011;9517;51.174;4.160;2022-09-17T08:36:22;12.13;;;1.57;;
18776;SDS011;9517;51.174;4.160;2022-09-17T08:38:53;8.77;;;1.13;;
18776;SDS011;9517;51.174;4.160;2022-09-17T08:41:25;14.73;;;1.20;;
18776;SDS011;9517;51.174;4.160;2022-09-17T08:44:01;9.70;;;1.53;;
18776;SDS011;9517;51.174;4.160;2022-09-17T08:46:41;9.93;;;1.33;;
18776;SDS011;9517;51.174;4.160;2022-09-17T08:49:15;11.63;;;1.33;;
18776;SDS011;9517;51.174;4.160;2022-09-17T08:51:57;10.63;;;1.40;;
18776;SDS011;9517;51.174;4.160;2022-09-17T08:54:54;6.80;;;1.20;;
18776;SDS011;9517;51.174;4.160;2022-09-17T08:57:30;9.03;;;1.20;;
18776;SDS011;9517;51.174;4.160;2022-09-17T09:00:05;7.87;;;0.80;;
18776;SDS011;9517;51.174;4.160;2022-09-17T09:02:40;12.07;;;1.13;;
18776;SDS011;9517;51.174;4.160;2022-09-17T09:05:24;7.20;;;1.13;;
18776;SDS011;9517;51.174;4.160;2022-09-17T09:08:01;8.40;;;0.97;;
18776;SDS011;9517;51.174;4.160;2022-09-17T09:10:34;8.03;;;0.90;;
18776;SDS011;9517;51.174;4.160;2022-09-17T09:13:14;10.70;;;1.20;;
18776;SDS011;9517;51.174;4.160;2022-09-17T09:15:48;13.30;;;1.23;;
18776;SDS011;9517;51.174;4.160;2022-09-17T09:18:20;14.77;;;1.40;;
18776;SDS011;9517;51.174;4.160;2022-09-17T09:20:51;8.73;;;1.67;;
18776;SDS011;9517;51.174;4.160;2022-09-17T09:23:24;11.27;;;1.50;;
18776;SDS011;9517;51.174;4.160;2022-09-17T09:26:02;12.57;;;1.47;;
18776;SDS011;9517;51.174;4.160;2022-09-17T09:28:53;15.60;;;1.80;;
18776;SDS011;9517;51.174;4.160;2022-09-17T09:31:37;14.33;;;1.90;;
18776;SDS011;9517;51.174;4.160;2022-09-17T09:34:25;12.30;;;1.93;;
18776;SDS011;9517;51.174;4.160;2022-09-17T09:36:54;13.93;;;1.70;;
18776;SDS011;9517;51.174;4.160;2022-09-17T09:39:31;10.00;;;1.53;;
18776;SDS011;9517;51.174;4.160;2022-09-17T09:42:03;8.43;;;1.20;;
18776;SDS011;9517;51.174;4.160;2022-09-17T09:44:38;7.50;;;1.00;;
18776;SDS011;9517;51.174;4.160;2022-09-17T09:47:11;13.10;;;1.63;;
18776;SDS011;9517;51.174;4.160;2022-09-17T09:50:06;11.63;;;1.10;;
18776;SDS011;9517;51.174;4.160;2022-09-17T09:52:48;7.57;;;0.80;;
18776;SDS011;9517;51.174;4.160;2022-09-17T09:58:29;10.00;;;1.00;;
18776;SDS011;9517;51.174;4.160;2022-09-17T10:01:09;7.17;;;1.03;;
18776;SDS011;9517;51.174;4.160;2022-09-17T10:03:40;10.50;;;1.27;;
18776;SDS011;9517;51.174;4.160;2022-09-17T10:06:12;5.23;;;0.90;;
18776;SDS011;9517;51.174;4.160;2022-09-17T10:08:40;6.17;;;0.73;;
18776;SDS011;9517;51.174;4.160;2022-09-17T10:11:29;5.73;;;0.70;;
18776;SDS011;9517;51.174;4.160;2022-09-17T10:14:12;8.37;;;0.77;;
18776;SDS011;9517;51.174;4.160;2022-09-17T10:16:43;8.07;;;0.93;;
18776;SDS011;9517;51.174;4.160;2022-09-17T10:19:11;10.60;;;1.10;;
18776;SDS011;9517;51.174;4.160;2022-09-17T10:21:49;5.30;;;0.80;;
18776;SDS011;9517;51.174;4.160;2022-09-17T10:24:20;6.37;;;0.90;;
18776;SDS011;9517;51.174;4.160;2022-09-17T10:26:51;7.13;;;1.10;;
18776;SDS011;9517;51.174;4.160;2022-09-17T10:29:28;12.53;;;1.63;;
18776;SDS011;9517;51.174;4.160;2022-09-17T10:32:04;8.33;;;1.30;;
18776;SDS011;9517;51.174;4.160;2022-09-17T10:34:32;8.33;;;1.10;;
18776;SDS011;9517;51.174;4.160;2022-09-17T10:37:30;9.13;;;1.40;;
18776;SDS011;9517;51.174;4.160;2022-09-17T10:43:16;8.13;;;1.57;;
18776;SDS011;9517;51.174;4.160;2022-09-17T10:45:54;8.00;;;1.20;;
18776;SDS011;9517;51.174;4.160;2022-09-17T10:48:26;11.93;;;1.27;;
18776;SDS011;9517;51.174;4.160;2022-09-17T10:50:56;8.23;;;1.33;;
18776;SDS011;9517;51.174;4.160;2022-09-17T10:53:27;9.77;;;1.07;;
18776;SDS011;9517;51.174;4.160;2022-09-17T10:55:57;10.07;;;1.30;;
18776;SDS011;9517;51.174;4.160;2022-09-17T10:58:39;8.00;;;1.20;;
18776;SDS011;9517;51.174;4.160;2022-09-17T11:01:19;15.07;;;1.70;;
18776;SDS011;9517;51.174;4.160;2022-09-17T11:07:02;11.57;;;1.30;;
18776;SDS011;9517;51.174;4.160;2022-09-17T11:09:52;5.33;;;1.10;;
18776;SDS011;9517;51.174;4.160;2022-09-17T11:12:28;7.53;;;1.30;;
18776;SDS011;9517;51.174;4.160;2022-09-17T11:15:05;10.53;;;1.20;;
18776;SDS011;9517;51.174;4.160;2022-09-17T11:18:00;9.40;;;0.97;;
18776;SDS011;9517;51.174;4.160;2022-09-17T11:20:51;11.20;;;1.47;;
18776;SDS011;9517;51.174;4.160;2022-09-17T11:23:30;10.47;;;1.70;;
18776;SDS011;9517;51.174;4.160;2022-09-17T11:26:25;11.13;;;1.60;;
18776;SDS011;9517;51.174;4.160;2022-09-17T11:28:59;11.40;;;1.40;;
18776;SDS011;9517;51.174;4.160;2022-09-17T11:31:41;15.30;;;1.60;;
18776;SDS011;9517;51.174;4.160;2022-09-17T11:34:19;13.20;;;1.90;;
18776;SDS011;9517;51.174;4.160;2022-09-17T11:36:56;12.57;;;1.77;;
18776;SDS011;9517;51.174;4.160;2022-09-17T11:39:32;16.63;;;3.90;;
18776;SDS011;9517;51.174;4.160;2022-09-17T11:42:06;9.67;;;1.60;;
18776;SDS011;9517;51.174;4.160;2022-09-17T11:44:38;13.40;;;1.90;;
18776;SDS011;9517;51.174;4.160;2022-09-17T11:47:12;11.63;;;1.90;;
18776;SDS011;9517;51.174;4.160;2022-09-17T11:49:43;16.60;;;2.93;;
18776;SDS011;9517;51.174;4.160;2022-09-17T11:52:17;11.80;;;1.57;;
18776;SDS011;9517;51.174;4.160;2022-09-17T11:54:49;13.37;;;1.80;;
18776;SDS011;9517;51.174;4.160;2022-09-17T11:57:21;14.13;;;1.97;;
18776;SDS011;9517;51.174;4.160;2022-09-17T11:59:53;11.67;;;1.80;;
18776;SDS011;9517;51.174;4.160;2022-09-17T12:02:26;11.83;;;1.83;;
18776;SDS011;9517;51.174;4.160;2022-09-17T12:05:06;12.27;;;1.80;;
18776;SDS011;9517;51.174;4.160;2022-09-17T12:07:41;16.47;;;2.10;;
18776;SDS011;9517;51.174;4.160;2022-09-17T12:13:13;11.77;;;2.17;;
18776;SDS011;9517;51.174;4.160;2022-09-17T12:15:47;21.13;;;2.10;;
18776;SDS011;9517;51.174;4.160;2022-09-17T12:18:23;14.40;;;1.80;;
18776;SDS011;9517;51.174;4.160;2022-09-17T12:20:59;15.43;;;1.90;;
18776;SDS011;9517;51.174;4.160;2022-09-17T12:23:34;13.83;;;1.90;;
18776;SDS011;9517;51.174;4.160;2022-09-17T12:26:13;9.77;;;1.70;;
18776;SDS011;9517;51.174;4.160;2022-09-17T12:28:55;12.03;;;2.37;;
18776;SDS011;9517;51.174;4.160;2022-09-17T12:31:30;15.03;;;2.27;;
18776;SDS011;9517;51.174;4.160;2022-09-17T12:34:05;13.17;;;2.17;;
18776;SDS011;9517;51.174;4.160;2022-09-17T12:36:46;19.13;;;2.17;;
18776;SDS011;9517;51.174;4.160;2022-09-17T12:39:42;13.17;;;1.90;;
18776;SDS011;9517;51.174;4.160;2022-09-17T12:42:33;9.37;;;1.53;;
18776;SDS011;9517;51.174;4.160;2022-09-17T12:45:13;14.23;;;2.00;;
18776;SDS011;9517;51.174;4.160;2022-09-17T12:48:06;17.17;;;2.23;;
18776;SDS011;9517;51.174;4.160;2022-09-17T12:50:53;14.03;;;1.70;;
18776;SDS011;9517;51.174;4.160;2022-09-17T12:53:33;12.33;;;1.40;;
18776;SDS011;9517;51.174;4.160;2022-09-17T12:56:11;12.03;;;1.83;;
18776;SDS011;9517;51.174;4.160;2022-09-17T12:59:01;10.70;;;1.80;;
18776;SDS011;9517;51.174;4.160;2022-09-17T13:01:34;11.00;;;1.57;;
18776;SDS011;9517;51.174;4.160;2022-09-17T13:04:10;11.20;;;1.20;;
18776;SDS011;9517;51.174;4.160;2022-09-17T13:09:58;10.13;;;1.43;;
18776;SDS011;9517;51.174;4.160;2022-09-17T13:12:39;11.37;;;1.10;;
18776;SDS011;9517;51.174;4.160;2022-09-17T13:15:20;9.90;;;0.93;;
18776;SDS011;9517;51.174;4.160;2022-09-17T13:18:05;16.10;;;2.10;;
18776;SDS011;9517;51.174;4.160;2022-09-17T13:20:42;6.63;;;1.03;;
18776;SDS011;9517;51.174;4.160;2022-09-17T13:23:28;12.50;;;1.20;;
18776;SDS011;9517;51.174;4.160;2022-09-17T13:26:02;5.10;;;0.80;;
18776;SDS011;9517;51.174;4.160;2022-09-17T13:28:42;5.93;;;0.73;;
18776;SDS011;9517;51.174;4.160;2022-09-17T13:31:11;7.37;;;1.03;;
18776;SDS011;9517;51.174;4.160;2022-09-17T13:33:51;6.97;;;1.00;;
18776;SDS011;9517;51.174;4.160;2022-09-17T13:36:39;3.83;;;0.67;;
18776;SDS011;9517;51.174;4.160;2022-09-17T13:42:04;6.03;;;0.70;;
18776;SDS011;9517;51.174;4.160;2022-09-17T13:44:43;8.93;;;1.10;;
18776;SDS011;9517;51.174;4.160;2022-09-17T13:47:16;8.40;;;1.10;;
18776;SDS011;9517;51.174;4.160;2022-09-17T13:49:54;7.20;;;0.97;;
18776;SDS011;9517;51.174;4.160;2022-09-17T13:52:31;9.90;;;1.30;;
18776;SDS011;9517;51.174;4.160;2022-09-17T13:55:00;10.43;;;1.47;;
18776;SDS011;9517;51.174;4.160;2022-09-17T13:57:32;10.80;;;1.47;;
18776;SDS011;9517;51.174;4.160;2022-09-17T14:09:39;13.73;;;1.40;;
18776;SDS011;9517;51.174;4.160;2022-09-17T14:15:35;10.73;;;1.60;;
18776;SDS011;9517;51.174;4.160;2022-09-17T14:23:56;8.53;;;1.00;;
18776;SDS011;9517;51.174;4.160;2022-09-17T14:26:39;4.87;;;0.50;;
18776;SDS011;9517;51.174;4.160;2022-09-17T14:29:34;7.70;;;0.90;;
18776;SDS011;9517;51.174;4.160;2022-09-17T14:32:16;7.73;;;0.80;;
18776;SDS011;9517;51.174;4.160;2022-09-17T14:34:47;5.90;;;0.93;;
18776;SDS011;9517;51.174;4.160;2022-09-17T14:37:17;5.37;;;0.90;;
18776;SDS011;9517;51.174;4.160;2022-09-17T14:39:50;8.13;;;1.20;;
18776;SDS011;9517;51.174;4.160;2022-09-17T14:42:19;7.53;;;0.90;;
18776;SDS011;9517;51.174;4.160;2022-09-17T14:44:54;9.40;;;1.40;;
18776;SDS011;9517;51.174;4.160;2022-09-17T14:47:24;10.10;;;1.10;;
18776;SDS011;9517;51.174;4.160;2022-09-17T14:49:53;11.00;;;1.20;;
18776;SDS011;9517;51.174;4.160;2022-09-17T14:52:26;7.73;;;1.13;;
18776;SDS011;9517;51.174;4.160;2022-09-17T14:55:13;12.17;;;1.50;;
18776;SDS011;9517;51.174;4.160;2022-09-17T14:57:42;8.53;;;1.20;;
18776;SDS011;9517;51.174;4.160;2022-09-17T15:00:15;12.33;;;1.50;;
18776;SDS011;9517;51.174;4.160;2022-09-17T15:02:48;11.93;;;2.17;;
18776;SDS011;9517;51.174;4.160;2022-09-17T15:05:22;10.83;;;2.00;;
18776;SDS011;9517;51.174;4.160;2022-09-17T15:08:05;8.67;;;1.57;;
18776;SDS011;9517;51.174;4.160;2022-09-17T15:13:25;14.50;;;1.70;;
18776;SDS011;9517;51.174;4.160;2022-09-17T15:15:58;7.63;;;1.10;;
18776;SDS011;9517;51.174;4.160;2022-09-17T15:18:33;8.60;;;1.20;;
18776;SDS011;9517;51.174;4.160;2022-09-17T15:21:05;9.20;;;1.40;;
18776;SDS011;9517;51.174;4.160;2022-09-17T15:23:42;8.03;;;1.30;;
18776;SDS011;9517;51.174;4.160;2022-09-17T15:26:12;10.43;;;0.93;;
18776;SDS011;9517;51.174;4.160;2022-09-17T15:28:46;9.03;;;1.47;;
18776;SDS011;9517;51.174;4.160;2022-09-17T15:31:16;10.03;;;1.50;;
18776;SDS011;9517;51.174;4.160;2022-09-17T15:33:44;10.33;;;1.77;;
18776;SDS011;9517;51.174;4.160;2022-09-17T15:36:22;9.63;;;1.20;;
18776;SDS011;9517;51.174;4.160;2022-09-17T15:38:53;9.50;;;2.27;;
18776;SDS011;9517;51.174;4.160;2022-09-17T15:41:25;13.67;;;1.63;;
18776;SDS011;9517;51.174;4.160;2022-09-17T15:44:06;9.13;;;1.27;;
18776;SDS011;9517;51.174;4.160;2022-09-17T15:46:52;10.40;;;1.30;;
18776;SDS011;9517;51.174;4.160;2022-09-17T15:49:28;11.90;;;2.20;;
18776;SDS011;9517;51.174;4.160;2022-09-17T15:54:58;12.57;;;1.67;;
18776;SDS011;9517;51.174;4.160;2022-09-17T15:57:28;12.07;;;2.10;;
18776;SDS011;9517;51.174;4.160;2022-09-17T16:00:05;9.93;;;1.57;;
18776;SDS011;9517;51.174;4.160;2022-09-17T16:02:38;11.63;;;1.80;;
18776;SDS011;9517;51.174;4.160;2022-09-17T16:08:20;13.37;;;1.50;;
18776;SDS011;9517;51.174;4.160;2022-09-17T16:11:02;12.13;;;1.57;;
18776;SDS011;9517;51.174;4.160;2022-09-17T16:13:32;10.10;;;1.33;;
18776;SDS011;9517;51.174;4.160;2022-09-17T16:16:00;12.47;;;1.57;;
18776;SDS011;9517;51.174;4.160;2022-09-17T16:18:28;12.23;;;1.40;;
18776;SDS011;9517;51.174;4.160;2022-09-17T16:20:58;11.40;;;1.50;;
18776;SDS011;9517;51.174;4.160;2022-09-17T16:23:25;7.47;;;1.13;;